Thunder radar more information blitzortung!


Radar de pluja more information rain snow radar


Visita la nostra xarxa de llocs de meteo:

Template documentation
and downloads

And another site



No particular awareness of the weather is required.    There are no Weather-warnings

Pagina Historial Weather Underground text

Diari Resum Setembre 20, 2017 Unitats:  Imperial    Mètric   Tant
« Previous Dia
SegĂźent Dia »
Diari Setmana Mensual Anual Personalitzada
  Maxima: Minima: Media:
Temperatura: TemperatureC °F 11.7 °F 18.3 °F
Punt de rosada: DewpointC °F 6.7 °F 9.3 °F
Humitat: Humidity % 44 % 56 %
Wind Speed: WindSpeedKMH mph 0.0 mph 5.8 mph
RĂ fegues de vent: WindSpeedGustKMH mph - -
Vent:- - ESE
Pression baro: PressurehPa in 1016.8 in -
Precipitacions: 0.0 in    
Historical Graphs
 
 
Dades de taula per Setembre 20, 2017
Temps Temperatura Punt de rosada Pression baro Vent Wind Speed RĂ fegues de vent Humitat Rainfall Rate (Hourly)
TemperatureC °F DewpointC °F PressurehPa in Calm     Humidity % HourlyPrecipMM in
00:00 13.2 °F 8.7 °F 1019.9 in Calm   3.2 mph 74 % 0.0 in
00:02 16.1 °F 9.3 °F 1019.9 in Calm     64 % 0.0 in
00:10 13.2 °F 8.7 °F 1019.9 in NNW 1.6 mph 4.8 mph 74 % 0.0 in
00:20 13.0 °F 8.4 °F 1019.9 in NW 1.6 mph 3.2 mph 74 % 0.0 in
00:30 13.3 °F 8.6 °F 1019.9 in NNE 8.0 mph 8.0 mph 73 % 0.0 in
00:40 13.7 °F 8.7 °F 1019.9 in NNE 8.0 mph 11.3 mph 72 % 0.0 in
00:50 13.5 °F 8.6 °F 1019.9 in NNE 4.8 mph 8.0 mph 72 % 0.0 in
01:00 13.4 °F 8.7 °F 1018.8 in NNE 9.7 mph 9.7 mph 73 % 0.0 in
01:10 13.2 °F 8.4 °F 1019.9 in NNE 3.2 mph 8.0 mph 73 % 0.0 in
01:20 12.9 °F 8.2 °F 1019.9 in NNE 4.8 mph 6.4 mph 73 % 0.0 in
01:30 12.7 °F 8.0 °F 1019.9 in Calm   6.4 mph 73 % 0.0 in
01:40 12.4 °F 7.9 °F 1019.9 in Calm   1.6 mph 74 % 0.0 in
01:50 12.1 °F 7.6 °F 1019.9 in Calm   3.2 mph 74 % 0.0 in
02:00 11.9 °F 7.4 °F 1019.9 in SW 3.2 mph 3.2 mph 74 % 0.0 in
02:10 12.1 °F 7.8 °F 1019.9 in WSW 1.6 mph 1.6 mph 75 % 0.0 in
02:20 12.1 °F 8.0 °F 1019.9 in Calm   1.6 mph 76 % 0.0 in
02:30 12.0 °F 7.9 °F 1020.9 in Calm     76 % 0.0 in
02:40 11.9 °F 7.8 °F 1018.8 in Calm   1.6 mph 76 % 0.0 in
02:50 11.8 °F 7.7 °F 1018.8 in Calm   1.6 mph 76 % 0.0 in
03:00 11.7 °F 7.4 °F 1019.9 in Calm   3.2 mph 75 % 0.0 in
03:10 11.7 °F 7.4 °F 1018.8 in Calm   1.6 mph 75 % 0.0 in
03:20 12.2 °F 7.7 °F 1018.8 in Calm     74 % 0.0 in
03:30 13.0 °F 8.7 °F 1019.9 in SW 1.6 mph 3.2 mph 75 % 0.0 in
03:40 12.9 °F 8.2 °F 1019.9 in ENE 1.6 mph 4.8 mph 73 % 0.0 in
03:50 13.4 °F 8.4 °F 1019.9 in NE 4.8 mph 6.4 mph 72 % 0.0 in
04:00 14.0 °F 8.6 °F 1020.9 in NNE 1.6 mph 4.8 mph 70 % 0.0 in
04:10 14.7 °F 8.8 °F 1019.9 in NNE 1.6 mph 3.2 mph 68 % 0.0 in
04:20 14.5 °F 8.2 °F 1019.9 in North 1.6 mph 3.2 mph 66 % 0.0 in
04:30 14.4 °F 8.1 °F 1019.9 in NNE 4.8 mph 6.4 mph 66 % 0.0 in
04:40 14.2 °F 7.5 °F 1019.9 in NNE 4.8 mph 6.4 mph 64 % 0.0 in
04:50 14.7 °F 8.2 °F 1019.9 in Calm   6.4 mph 65 % 0.0 in
05:00 15.6 °F 9.1 °F 1019.9 in NE 3.2 mph 4.8 mph 65 % 0.0 in
05:10 15.9 °F 9.1 °F 1019.9 in NE 3.2 mph 4.8 mph 64 % 0.0 in
05:20 16.4 °F 9.3 °F 1019.9 in NE 3.2 mph 6.4 mph 63 % 0.0 in
10:30 17.5 °F 9.7 °F 1019.9 in NNE 5.6 mph 5.6 mph 60 % 0.0 in
10:35 17.4 °F 9.3 °F 1019.9 in NNE 7.4 mph 7.4 mph 59 % 0.0 in
10:40 17.7 °F 9.6 °F 1019.9 in ENE 5.6 mph 5.6 mph 59 % 0.0 in
10:45 18.2 °F 10.1 °F 1019.9 in NNE 6.4 mph 6.4 mph 59 % 0.0 in
10:50 18.4 °F 10.0 °F 1019.9 in NNE 7.9 mph 7.9 mph 58 % 0.0 in
10:55 18.3 °F 9.6 °F 1019.9 in NNE 7.4 mph 7.4 mph 57 % 0.0 in
11:00 18.3 °F 9.6 °F 1019.9 in NNE 7.4 mph 7.4 mph 57 % 0.0 in
11:05 18.6 °F 10.2 °F 1020.9 in NNE 7.4 mph 7.4 mph 58 % 0.0 in
11:10 18.7 °F 10.3 °F 1020.9 in ESE 9.3 mph 9.3 mph 58 % 0.0 in
11:15 18.6 °F 10.2 °F 1020.9 in ESE 6.9 mph 6.9 mph 58 % 0.0 in
11:20 18.6 °F 10.2 °F 1019.9 in ENE 9.3 mph 9.3 mph 58 % 0.0 in
11:25 19.2 °F 10.7 °F 1019.9 in NNE 3.9 mph 3.9 mph 58 % 0.0 in
11:30 19.4 °F 10.9 °F 1019.9 in East 9.3 mph 9.3 mph 58 % 0.0 in
11:35 19.2 °F 11.0 °F 1019.9 in ENE 8.7 mph 8.7 mph 59 % 0.0 in
11:40 19.4 °F 11.2 °F 1019.9 in NNE 5.6 mph 6.1 mph 59 % 0.0 in
11:45 19.5 °F 11.5 °F 1019.9 in NNE 9.5 mph 9.5 mph 60 % 0.0 in
11:50 19.6 °F 11.4 °F 1019.9 in SSE 9.3 mph 9.3 mph 59 % 0.0 in
11:55 20.0 °F 11.7 °F 1019.9 in ESE 9.3 mph 9.3 mph 59 % 0.0 in
12:00 20.0 °F 11.5 °F 1019.9 in NNE 11.1 mph 11.1 mph 58 % 0.0 in
12:05 20.0 °F 11.7 °F 1019.9 in East 16.7 mph 16.7 mph 59 % 0.0 in
12:10 20.1 °F 11.8 °F 1019.9 in SE 14.8 mph 14.8 mph 59 % 0.0 in
12:11 20.1 °F 11.8 °F 1019.9 in ESE 13.0 mph 13.0 mph 59 % 0.0 in
12:16 20.2 °F 11.7 °F 1019.9 in ENE 9.3 mph 9.3 mph 58 % 0.0 in
12:21 20.5 °F 11.9 °F 1019.9 in NE 11.1 mph 11.1 mph 58 % 0.0 in
12:26 20.5 °F 11.9 °F 1019.9 in SSE 7.4 mph 7.4 mph 58 % 0.0 in
12:31 20.8 °F 12.2 °F 1019.9 in ENE 7.4 mph 7.4 mph 58 % 0.0 in
12:36 20.9 °F 12.3 °F 1018.8 in SE 7.4 mph 7.4 mph 58 % 0.0 in
12:41 20.7 °F 11.9 °F 1018.8 in SSE 9.5 mph 9.5 mph 57 % 0.0 in
12:46 21.6 °F 12.7 °F 1018.8 in SSW 9.3 mph 9.3 mph 57 % 0.0 in
12:51 21.0 °F 11.6 °F 1019.9 in ESE 11.1 mph 11.1 mph 55 % 0.0 in
12:56 20.5 °F 11.4 °F 1019.9 in ESE 9.3 mph 9.3 mph 56 % 0.0 in
13:01 20.8 °F 11.7 °F 1019.9 in SSE 6.4 mph 6.4 mph 56 % 0.0 in
13:06 21.0 °F 11.9 °F 1019.9 in West 9.3 mph 9.3 mph 56 % 0.0 in
13:11 20.8 °F 11.4 °F 1019.9 in ENE 5.6 mph 5.6 mph 55 % 0.0 in
13:16 21.3 °F 11.9 °F 1019.9 in East 9.3 mph 9.3 mph 55 % 0.0 in
13:21 21.3 °F 11.3 °F 1019.9 in WSW 9.3 mph 9.3 mph 53 % 0.0 in
13:26 21.4 °F 11.4 °F 1019.9 in ENE 10.3 mph 10.3 mph 53 % 0.0 in
13:31 21.6 °F 11.9 °F 1019.9 in ESE 14.8 mph 14.8 mph 54 % 0.0 in
13:36 21.6 °F 11.6 °F 1019.9 in ESE 11.1 mph 11.1 mph 53 % 0.0 in
13:41 21.7 °F 11.4 °F 1019.9 in SE 13.0 mph 13.0 mph 52 % 0.0 in
13:46 22.0 °F 12.0 °F 1019.9 in ESE 14.8 mph 14.8 mph 53 % 0.0 in
13:51 22.3 °F 11.9 °F 1019.9 in ESE 9.3 mph 9.3 mph 52 % 0.0 in
13:56 21.7 °F 11.4 °F 1019.9 in ESE 13.0 mph 13.0 mph 52 % 0.0 in
14:01 21.3 °F 11.1 °F 1019.9 in East 11.1 mph 11.1 mph 52 % 0.0 in
14:02 21.5 °F 11.2 °F 1019.9 in NNE 9.3 mph 9.3 mph 52 % 0.0 in
14:07 21.7 °F 11.4 °F 1018.8 in ENE 11.1 mph 11.1 mph 52 % 0.0 in
14:12 22.0 °F 11.7 °F 1018.8 in ENE 13.0 mph 13.0 mph 52 % 0.0 in
14:17 22.4 °F 12.1 °F 1018.8 in ESE 9.3 mph 9.3 mph 52 % 0.0 in
14:22 22.1 °F 11.5 °F 1019.9 in ENE 9.3 mph 9.3 mph 51 % 0.0 in
14:27 22.3 °F 11.7 °F 1019.9 in East 13.0 mph 13.0 mph 51 % 0.0 in
14:32 22.6 °F 11.9 °F 1019.9 in NNE 9.5 mph 9.5 mph 51 % 0.0 in
14:37 22.6 °F 11.9 °F 1018.8 in ESE 7.6 mph 7.6 mph 51 % 0.0 in
14:42 22.3 °F 11.4 °F 1018.8 in South 13.0 mph 13.0 mph 50 % 0.0 in
14:47 22.5 °F 11.6 °F 1018.8 in SE 14.8 mph 14.8 mph 50 % 0.0 in
14:52 22.1 °F 10.9 °F 1018.8 in SSE 13.0 mph 13.0 mph 49 % 0.0 in
14:57 22.6 °F 11.3 °F 1018.8 in SW 9.3 mph 9.3 mph 49 % 0.0 in
15:02 22.9 °F 11.6 °F 1018.8 in East 6.4 mph 6.4 mph 49 % 0.0 in
15:03 22.9 °F 11.6 °F 1018.8 in East 6.4 mph 6.4 mph 49 % 0.0 in
15:08 22.6 °F 11.3 °F 1018.8 in ESE 13.0 mph 13.0 mph 49 % 0.0 in
15:13 21.8 °F 10.6 °F 1018.8 in ESE 9.5 mph 9.5 mph 49 % 0.0 in
15:18 22.3 °F 11.4 °F 1018.8 in ESE 9.5 mph 9.5 mph 50 % 0.0 in
15:23 22.3 °F 11.1 °F 1018.8 in SE 10.0 mph 10.0 mph 49 % 0.0 in
15:28 22.3 °F 11.1 °F 1018.8 in ENE 13.0 mph 13.0 mph 49 % 0.0 in
15:33 22.3 °F 11.1 °F 1018.8 in ESE 11.1 mph 11.1 mph 49 % 0.0 in
15:38 22.6 °F 11.3 °F 1017.8 in ENE 13.0 mph 13.0 mph 49 % 0.0 in
15:43 22.7 °F 11.4 °F 1017.8 in South 7.4 mph 7.4 mph 49 % 0.0 in
15:48 22.6 °F 11.3 °F 1017.8 in ESE 16.7 mph 16.7 mph 49 % 0.0 in
15:53 22.2 °F 10.7 °F 1018.8 in SE 9.3 mph 10.3 mph 48 % 0.0 in
15:58 22.3 °F 11.1 °F 1018.8 in ESE 13.0 mph 13.0 mph 49 % 0.0 in
16:03 22.5 °F 11.2 °F 1018.8 in ESE 13.0 mph 13.0 mph 49 % 0.0 in
16:08 22.6 °F 11.3 °F 1017.8 in East 12.2 mph 12.2 mph 49 % 0.0 in
16:13 22.6 °F 11.3 °F 1017.8 in ENE 14.5 mph 14.5 mph 49 % 0.0 in
16:18 22.5 °F 10.9 °F 1017.8 in ESE 13.0 mph 13.0 mph 48 % 0.0 in
16:23 22.4 °F 10.8 °F 1017.8 in ENE 13.0 mph 13.0 mph 48 % 0.0 in
16:28 22.5 °F 10.9 °F 1017.8 in ESE 12.2 mph 12.2 mph 48 % 0.0 in
16:33 22.3 °F 11.1 °F 1017.8 in East 13.0 mph 13.0 mph 49 % 0.0 in
16:38 22.2 °F 11.0 °F 1017.8 in ESE 11.1 mph 11.1 mph 49 % 0.0 in
16:43 22.1 °F 10.9 °F 1017.8 in ENE 9.0 mph 9.0 mph 49 % 0.0 in
16:48 22.5 °F 11.2 °F 1017.8 in ENE 10.3 mph 10.3 mph 49 % 0.0 in
16:58 22.1 °F 10.6 °F 1016.8 in ESE 13.0 mph 13.0 mph 48 % 0.0 in
17:03 22.0 °F 10.5 °F 1016.8 in SE 16.7 mph 16.7 mph 48 % 0.0 in
17:08 22.1 °F 10.6 °F 1017.8 in ESE 13.0 mph 13.0 mph 48 % 0.0 in
17:13 22.2 °F 10.7 °F 1017.8 in SSE 9.7 mph 9.7 mph 48 % 0.0 in
17:18 22.4 °F 10.6 °F 1017.8 in ESE 13.0 mph 13.0 mph 47 % 0.0 in
17:23 22.2 °F 10.3 °F 1018.8 in SW 11.1 mph 11.1 mph 47 % 0.0 in
17:28 22.0 °F 10.2 °F 1018.8 in SSE 5.6 mph 5.6 mph 47 % 0.0 in
17:33 22.2 °F 10.3 °F 1018.8 in ESE 9.7 mph 9.7 mph 47 % 0.0 in
17:38 22.1 °F 9.9 °F 1017.8 in ESE 13.7 mph 13.7 mph 46 % 0.0 in
17:43 21.9 °F 10.1 °F 1017.8 in SE 14.8 mph 14.8 mph 47 % 0.0 in
17:48 22.0 °F 9.8 °F 1017.8 in ESE 9.3 mph 9.3 mph 46 % 0.0 in
17:53 21.9 °F 9.8 °F 1017.8 in ESE 13.0 mph 13.0 mph 46 % 0.0 in
17:58 21.8 °F 9.7 °F 1017.8 in ENE 13.0 mph 13.0 mph 46 % 0.0 in
18:03 21.7 °F 9.6 °F 1017.8 in East 11.1 mph 11.1 mph 46 % 0.0 in
18:08 21.7 °F 9.2 °F 1017.8 in East 9.3 mph 9.7 mph 45 % 0.0 in
18:13 21.6 °F 9.2 °F 1017.8 in ESE 10.0 mph 10.0 mph 45 % 0.0 in
18:18 21.5 °F 9.1 °F 1017.8 in East 11.4 mph 11.4 mph 45 % 0.0 in
18:23 21.4 °F 8.6 °F 1016.8 in SE 13.0 mph 13.0 mph 44 % 0.0 in
18:28 21.4 °F 8.6 °F 1016.8 in SE 9.3 mph 9.3 mph 44 % 0.0 in
18:33 21.4 °F 8.6 °F 1016.8 in SE 11.1 mph 11.1 mph 44 % 0.0 in
18:38 21.3 °F 8.6 °F 1016.8 in East 9.5 mph 9.5 mph 44 % 0.0 in
18:43 21.2 °F 8.4 °F 1016.8 in SE 9.0 mph 9.0 mph 44 % 0.0 in
18:48 21.1 °F 8.4 °F 1016.8 in ESE 9.3 mph 9.3 mph 44 % 0.0 in
18:53 21.0 °F 8.3 °F 1017.8 in East 14.8 mph 14.8 mph 44 % 0.0 in
18:58 20.9 °F 8.5 °F 1017.8 in ESE 11.1 mph 11.1 mph 45 % 0.0 in
19:03 20.8 °F 8.4 °F 1017.8 in ESE 7.4 mph 7.4 mph 45 % 0.0 in
19:08 20.7 °F 8.3 °F 1017.8 in East 6.9 mph 6.9 mph 45 % 0.0 in
19:13 20.6 °F 8.2 °F 1017.8 in ESE 7.4 mph 7.4 mph 45 % 0.0 in
19:18 20.5 °F 8.2 °F 1017.8 in ESE 5.3 mph 5.3 mph 45 % 0.0 in
19:20 15.7 °F 8.9 °F 1017.8 in NNE 1.6 mph 1.6 mph 64 % 0.0 in
19:23 20.5 °F 7.8 °F 1017.8 in ESE 7.4 mph 7.4 mph 44 % 0.0 in
19:28 20.3 °F 7.7 °F 1017.8 in ESE 9.3 mph 9.3 mph 44 % 0.0 in
19:30 15.8 °F 9.0 °F 1018.8 in Calm   3.2 mph 64 % 0.0 in
19:33 20.2 °F 7.6 °F 1017.8 in ESE 7.4 mph 7.4 mph 44 % 0.0 in
19:38 20.1 °F 7.4 °F 1017.8 in ESE 3.7 mph 3.7 mph 44 % 0.0 in
19:40 15.6 °F 9.1 °F 1017.8 in Calm   1.6 mph 65 % 0.0 in
19:43 20.0 °F 7.4 °F 1017.8 in SE 9.3 mph 9.3 mph 44 % 0.0 in
19:48 19.9 °F 7.3 °F 1018.8 in NNE 4.2 mph 4.2 mph 44 % 0.0 in
19:50 15.3 °F 8.5 °F 1017.8 in NW 1.6 mph 1.6 mph 64 % 0.0 in
19:53 19.8 °F 7.2 °F 1018.8 in East 7.4 mph 7.4 mph 44 % 0.0 in
19:58 19.6 °F 7.0 °F 1018.8 in East 5.6 mph 5.6 mph 44 % 0.0 in
20:00 15.2 °F 8.4 °F 1017.8 in Calm     64 % 0.0 in
20:03 19.5 °F 6.9 °F 1017.8 in East 7.4 mph 7.4 mph 44 % 0.0 in
20:08 19.5 °F 6.9 °F 1017.8 in ENE 5.6 mph 5.6 mph 44 % 0.0 in
20:10 15.1 °F 8.6 °F 1017.8 in NNE 1.6 mph 3.2 mph 65 % 0.0 in
20:13 19.4 °F 6.8 °F 1017.8 in NE 2.3 mph 2.3 mph 44 % 0.0 in
20:18 19.3 °F 6.7 °F 1017.8 in NNE 1.9 mph 1.9 mph 44 % 0.0 in
20:20 14.7 °F 8.2 °F 1017.8 in NE 1.6 mph 3.2 mph 65 % 0.0 in
20:23 19.2 °F 6.7 °F 1017.8 in Calm     44 % 0.0 in
20:28 19.0 °F 6.8 °F 1017.8 in West 1.9 mph 1.9 mph 45 % 0.0 in
20:30 14.6 °F 8.3 °F 1017.8 in Calm   1.6 mph 66 % 0.0 in
20:33 18.8 °F 6.9 °F 1017.8 in Calm     46 % 0.0 in
20:38 18.9 °F 7.0 °F 1017.8 in Calm     46 % 0.0 in
20:40 14.5 °F 8.2 °F 1017.8 in Calm     66 % 0.0 in
20:43 18.7 °F 6.8 °F 1017.8 in WSW 2.6 mph   46 % 0.0 in
20:48 18.6 °F 7.1 °F 1017.8 in NE 3.7 mph 3.7 mph 47 % 0.0 in
20:50 14.2 °F 8.2 °F 1017.8 in Calm     67 % 0.0 in
20:53 18.7 °F 7.2 °F 1017.8 in Calm     47 % 0.0 in
20:58 18.6 °F 7.4 °F 1017.8 in SSW 1.9 mph   48 % 0.0 in
21:00 14.0 °F 8.2 °F 1017.8 in Calm     68 % 0.0 in
21:03 18.5 °F 7.3 °F 1017.8 in Calm     48 % 0.0 in
21:08 18.4 °F 7.5 °F 1017.8 in NE 1.9 mph 1.9 mph 49 % 0.0 in
21:10 13.9 °F 8.3 °F 1017.8 in Calm     69 % 0.0 in
21:13 18.3 °F 7.4 °F 1017.8 in WNW 2.3 mph   49 % 0.0 in
21:18 18.2 °F 7.3 °F 1017.8 in West 3.7 mph 3.9 mph 49 % 0.0 in
21:20 13.8 °F 8.2 °F 1017.8 in Calm     69 % 0.0 in
21:23 18.2 °F 7.3 °F 1017.8 in NW 1.9 mph 1.9 mph 49 % 0.0 in
21:28 18.2 °F 7.3 °F 1017.8 in Calm     49 % 0.0 in
21:30 13.7 °F 8.3 °F 1017.8 in Calm     70 % 0.0 in
21:33 18.2 °F 7.3 °F 1017.8 in Calm     49 % 0.0 in
21:38 18.1 °F 7.5 °F 1017.8 in Calm     50 % 0.0 in
21:40 13.6 °F 8.2 °F 1017.8 in Calm     70 % 0.0 in
21:43 18.0 °F 7.4 °F 1017.8 in NW 3.7 mph 3.7 mph 50 % 0.0 in
21:48 17.9 °F 7.3 °F 1017.8 in Calm     50 % 0.0 in
21:50 13.5 °F 8.3 °F 1017.8 in Calm     71 % 0.0 in
21:53 17.9 °F 7.6 °F 1017.8 in Calm     51 % 0.0 in
21:58 17.8 °F 7.8 °F 1017.8 in Calm     52 % 0.0 in
22:00 13.4 °F 8.2 °F 1017.8 in Calm     71 % 0.0 in
22:03 17.8 °F 7.8 °F 1017.8 in Calm     52 % 0.0 in
22:08 17.7 °F 8.0 °F 1017.8 in Calm     53 % 0.0 in
22:10 13.4 °F 8.2 °F 1017.8 in Calm   1.6 mph 71 % 0.0 in
22:13 17.7 °F 8.6 °F 1017.8 in Calm     55 % 0.0 in
22:18 17.5 °F 8.3 °F 1017.8 in Calm     55 % 0.0 in
22:20 13.4 °F 8.4 °F 1017.8 in Calm     72 % 0.0 in
22:23 17.1 °F 7.7 °F 1017.8 in Calm     54 % 0.0 in
22:28 17.1 °F 7.7 °F 1017.8 in Calm     54 % 0.0 in
22:30 13.4 °F 8.4 °F 1017.8 in Calm     72 % 0.0 in
22:33 17.2 °F 8.1 °F 1017.8 in Calm     55 % 0.0 in
22:38 17.1 °F 8.0 °F 1017.8 in Calm     55 % 0.0 in
22:40 13.4 °F 8.4 °F 1017.8 in Calm     72 % 0.0 in
22:43 17.1 °F 8.2 °F 1017.8 in Calm     56 % 0.0 in
22:48 17.0 °F 8.4 °F 1017.8 in Calm     57 % 0.0 in
22:50 13.4 °F 8.4 °F 1017.8 in Calm   1.6 mph 72 % 0.0 in
22:53 16.9 °F 8.8 °F 1017.8 in Calm     59 % 0.0 in
22:58 16.7 °F 8.4 °F 1017.8 in Calm     58 % 0.0 in
23:00 13.3 °F 8.6 °F 1017.8 in SSW 1.6 mph 1.6 mph 73 % 0.0 in
23:03 16.7 °F 8.7 °F 1017.8 in WNW 2.6 mph   59 % 0.0 in
23:08 16.6 °F 8.8 °F 1017.8 in Calm     60 % 0.0 in
23:10 13.3 °F 8.6 °F 1017.8 in Calm     73 % 0.0 in
23:13 16.5 °F 8.7 °F 1017.8 in Calm     60 % 0.0 in
23:18 16.5 °F 8.9 °F 1018.8 in Calm     61 % 0.0 in
23:20 13.4 °F 8.7 °F 1017.8 in Calm     73 % 0.0 in
23:23 16.5 °F 9.2 °F 1018.8 in Calm     62 % 0.0 in
23:28 16.5 °F 9.2 °F 1018.8 in Calm     62 % 0.0 in
23:30 13.5 °F 8.9 °F 1017.8 in Calm     74 % 0.0 in
23:33 16.3 °F 9.0 °F 1018.8 in NNE 1.9 mph 1.9 mph 62 % 0.0 in
23:38 16.2 °F 8.7 °F 1018.8 in ESE 3.7 mph 3.7 mph 61 % 0.0 in
23:40 13.5 °F 8.8 °F 1017.8 in Calm   3.2 mph 73 % 0.0 in
23:43 16.2 °F 8.9 °F 1018.8 in Calm     62 % 0.0 in
23:48 16.0 °F 8.5 °F 1017.8 in NE 1.9 mph 1.9 mph 61 % 0.0 in
23:50 13.5 °F 8.9 °F 1017.8 in Calm   1.6 mph 74 % 0.0 in
23:53 15.9 °F 8.4 °F 1017.8 in Calm     61 % 0.0 in
23:58 15.8 °F 8.3 °F 1017.8 in Calm     61 % 0.0 in
Meteo Sesrovires
Elogis d' Weather Underground - 3.75 mb

Guio original per  Jim McMurry - jmcmurry@mwt.net Adaptat per a la plantilla per  Wim van der Kuil - Leuven-Template.eu

Trobareu la nostra informacio del temps tambe a:

Weather Underground

AWEKAS